sensor_id;sensor_type;location;lat;lon;timestamp;P1;durP1;ratioP1;P2;durP2;ratioP2
13687;SDS011;6916;51.504;7.416;2023-08-24T00:02:10;6.22;;;4.72;;
13687;SDS011;6916;51.504;7.416;2023-08-24T00:12:14;10.38;;;4.88;;
13687;SDS011;6916;51.504;7.416;2023-08-24T00:22:15;8.88;;;4.90;;
13687;SDS011;6916;51.504;7.416;2023-08-24T00:32:18;7.25;;;5.28;;
13687;SDS011;6916;51.504;7.416;2023-08-24T00:42:20;7.25;;;5.28;;
13687;SDS011;6916;51.504;7.416;2023-08-24T00:52:25;8.25;;;4.57;;
13687;SDS011;6916;51.504;7.416;2023-08-24T01:02:27;12.98;;;5.18;;
13687;SDS011;6916;51.504;7.416;2023-08-24T01:12:33;7.78;;;4.45;;
13687;SDS011;6916;51.504;7.416;2023-08-24T01:22:44;8.52;;;5.03;;
13687;SDS011;6916;51.504;7.416;2023-08-24T01:32:51;7.28;;;4.85;;
13687;SDS011;6916;51.504;7.416;2023-08-24T01:42:55;6.80;;;4.50;;
13687;SDS011;6916;51.504;7.416;2023-08-24T01:53:00;6.95;;;5.25;;
13687;SDS011;6916;51.504;7.416;2023-08-24T02:03:02;6.75;;;5.28;;
13687;SDS011;6916;51.504;7.416;2023-08-24T02:13:05;6.97;;;4.63;;
13687;SDS011;6916;51.504;7.416;2023-08-24T02:23:07;8.85;;;5.07;;
13687;SDS011;6916;51.504;7.416;2023-08-24T02:33:10;6.13;;;4.40;;
13687;SDS011;6916;51.504;7.416;2023-08-24T02:43:12;8.25;;;4.28;;
13687;SDS011;6916;51.504;7.416;2023-08-24T02:53:15;6.43;;;4.15;;
13687;SDS011;6916;51.504;7.416;2023-08-24T03:03:16;6.30;;;4.45;;
13687;SDS011;6916;51.504;7.416;2023-08-24T03:13:19;7.13;;;4.63;;
13687;SDS011;6916;51.504;7.416;2023-08-24T03:23:21;9.25;;;5.53;;
13687;SDS011;6916;51.504;7.416;2023-08-24T03:33:24;6.15;;;4.38;;
13687;SDS011;6916;51.504;7.416;2023-08-24T03:43:28;7.63;;;4.45;;
13687;SDS011;6916;51.504;7.416;2023-08-24T03:53:31;6.03;;;4.50;;
13687;SDS011;6916;51.504;7.416;2023-08-24T04:03:33;5.30;;;4.40;;
13687;SDS011;6916;51.504;7.416;2023-08-24T04:13:36;8.25;;;4.18;;
13687;SDS011;6916;51.504;7.416;2023-08-24T04:23:38;7.00;;;4.05;;
13687;SDS011;6916;51.504;7.416;2023-08-24T04:33:48;5.20;;;4.50;;
13687;SDS011;6916;51.504;7.416;2023-08-24T04:43:55;9.35;;;5.20;;
13687;SDS011;6916;51.504;7.416;2023-08-24T04:53:58;8.00;;;4.82;;
13687;SDS011;6916;51.504;7.416;2023-08-24T05:04:00;9.10;;;4.88;;
13687;SDS011;6916;51.504;7.416;2023-08-24T05:14:03;6.63;;;5.30;;
13687;SDS011;6916;51.504;7.416;2023-08-24T05:24:05;9.13;;;5.53;;
13687;SDS011;6916;51.504;7.416;2023-08-24T05:34:08;6.30;;;4.70;;
13687;SDS011;6916;51.504;7.416;2023-08-24T05:44:10;5.18;;;4.07;;
13687;SDS011;6916;51.504;7.416;2023-08-24T05:54:14;9.20;;;4.45;;
13687;SDS011;6916;51.504;7.416;2023-08-24T06:04:18;6.50;;;4.57;;
13687;SDS011;6916;51.504;7.416;2023-08-24T06:14:21;8.30;;;4.75;;
13687;SDS011;6916;51.504;7.416;2023-08-24T06:24:23;6.32;;;5.20;;
13687;SDS011;6916;51.504;7.416;2023-08-24T06:34:26;7.38;;;4.90;;
13687;SDS011;6916;51.504;7.416;2023-08-24T06:44:28;6.15;;;4.13;;
13687;SDS011;6916;51.504;7.416;2023-08-24T06:54:33;7.13;;;4.43;;
13687;SDS011;6916;51.504;7.416;2023-08-24T07:04:35;8.02;;;4.60;;
13687;SDS011;6916;51.504;7.416;2023-08-24T07:14:40;8.45;;;4.63;;
13687;SDS011;6916;51.504;7.416;2023-08-24T07:24:41;9.10;;;4.57;;
13687;SDS011;6916;51.504;7.416;2023-08-24T07:34:44;7.38;;;4.60;;
13687;SDS011;6916;51.504;7.416;2023-08-24T07:44:46;9.55;;;5.65;;
13687;SDS011;6916;51.504;7.416;2023-08-24T07:54:49;8.73;;;5.43;;
13687;SDS011;6916;51.504;7.416;2023-08-24T08:04:51;10.32;;;5.63;;
13687;SDS011;6916;51.504;7.416;2023-08-24T08:14:54;3.97;;;3.00;;
13687;SDS011;6916;51.504;7.416;2023-08-24T08:24:56;8.35;;;3.38;;
13687;SDS011;6916;51.504;7.416;2023-08-24T08:34:59;6.30;;;2.45;;
13687;SDS011;6916;51.504;7.416;2023-08-24T08:45:01;6.18;;;2.33;;
13687;SDS011;6916;51.504;7.416;2023-08-24T08:55:05;5.15;;;2.30;;
13687;SDS011;6916;51.504;7.416;2023-08-24T09:05:10;5.47;;;2.33;;
13687;SDS011;6916;51.504;7.416;2023-08-24T09:15:13;3.42;;;2.35;;
13687;SDS011;6916;51.504;7.416;2023-08-24T09:25:15;6.65;;;2.65;;
13687;SDS011;6916;51.504;7.416;2023-08-24T09:35:18;2.92;;;2.15;;
13687;SDS011;6916;51.504;7.416;2023-08-24T09:45:22;3.35;;;2.35;;
13687;SDS011;6916;51.504;7.416;2023-08-24T09:55:25;4.72;;;1.77;;
13687;SDS011;6916;51.504;7.416;2023-08-24T10:05:31;3.80;;;2.17;;
13687;SDS011;6916;51.504;7.416;2023-08-24T10:15:34;5.03;;;2.70;;
13687;SDS011;6916;51.504;7.416;2023-08-24T10:25:37;4.40;;;1.58;;
13687;SDS011;6916;51.504;7.416;2023-08-24T10:35:41;2.55;;;1.70;;
13687;SDS011;6916;51.504;7.416;2023-08-24T10:46:01;5.85;;;3.20;;
13687;SDS011;6916;51.504;7.416;2023-08-24T10:56:19;5.35;;;2.13;;
13687;SDS011;6916;51.504;7.416;2023-08-24T11:06:22;3.67;;;2.20;;
13687;SDS011;6916;51.504;7.416;2023-08-24T11:26:52;3.40;;;1.70;;
13687;SDS011;6916;51.504;7.416;2023-08-24T11:36:55;2.33;;;1.88;;
13687;SDS011;6916;51.504;7.416;2023-08-24T11:46:57;2.33;;;2.03;;
13687;SDS011;6916;51.504;7.416;2023-08-24T11:57:00;4.90;;;2.05;;
13687;SDS011;6916;51.504;7.416;2023-08-24T12:07:07;2.22;;;1.50;;
13687;SDS011;6916;51.504;7.416;2023-08-24T12:17:12;2.40;;;1.77;;
13687;SDS011;6916;51.504;7.416;2023-08-24T12:27:20;4.50;;;1.70;;
13687;SDS011;6916;51.504;7.416;2023-08-24T12:37:23;2.92;;;1.40;;
13687;SDS011;6916;51.504;7.416;2023-08-24T12:47:25;2.35;;;1.40;;
13687;SDS011;6916;51.504;7.416;2023-08-24T12:57:28;4.70;;;2.15;;
13687;SDS011;6916;51.504;7.416;2023-08-24T13:07:31;4.95;;;1.83;;
13687;SDS011;6916;51.504;7.416;2023-08-24T13:17:34;4.85;;;1.85;;
13687;SDS011;6916;51.504;7.416;2023-08-24T13:27:36;4.78;;;1.95;;
13687;SDS011;6916;51.504;7.416;2023-08-24T13:37:39;3.75;;;1.92;;
13687;SDS011;6916;51.504;7.416;2023-08-24T13:47:42;4.20;;;2.10;;
13687;SDS011;6916;51.504;7.416;2023-08-24T13:57:46;4.43;;;2.00;;
13687;SDS011;6916;51.504;7.416;2023-08-24T14:07:47;3.75;;;1.60;;
13687;SDS011;6916;51.504;7.416;2023-08-24T14:17:51;3.97;;;1.58;;
13687;SDS011;6916;51.504;7.416;2023-08-24T14:27:52;3.13;;;1.95;;
13687;SDS011;6916;51.504;7.416;2023-08-24T14:37:56;5.70;;;1.77;;
13687;SDS011;6916;51.504;7.416;2023-08-24T14:47:58;3.13;;;1.92;;
13687;SDS011;6916;51.504;7.416;2023-08-24T14:58:02;3.75;;;1.92;;
13687;SDS011;6916;51.504;7.416;2023-08-24T15:08:04;4.95;;;2.20;;
13687;SDS011;6916;51.504;7.416;2023-08-24T15:18:09;7.55;;;2.42;;
13687;SDS011;6916;51.504;7.416;2023-08-24T15:28:11;5.32;;;2.80;;
13687;SDS011;6916;51.504;7.416;2023-08-24T15:38:14;7.18;;;3.38;;
13687;SDS011;6916;51.504;7.416;2023-08-24T15:48:16;5.60;;;4.13;;
13687;SDS011;6916;51.504;7.416;2023-08-24T15:58:19;9.98;;;3.65;;
13687;SDS011;6916;51.504;7.416;2023-08-24T16:08:23;7.25;;;4.20;;
13687;SDS011;6916;51.504;7.416;2023-08-24T16:18:27;7.15;;;3.47;;
13687;SDS011;6916;51.504;7.416;2023-08-24T16:28:29;8.13;;;3.45;;
13687;SDS011;6916;51.504;7.416;2023-08-24T16:38:32;6.45;;;3.22;;
13687;SDS011;6916;51.504;7.416;2023-08-24T16:48:34;3.63;;;1.98;;
13687;SDS011;6916;51.504;7.416;2023-08-24T16:58:37;4.65;;;1.88;;
13687;SDS011;6916;51.504;7.416;2023-08-24T17:08:40;4.15;;;1.73;;
13687;SDS011;6916;51.504;7.416;2023-08-24T17:18:43;5.38;;;2.13;;
13687;SDS011;6916;51.504;7.416;2023-08-24T17:28:45;3.92;;;1.67;;
13687;SDS011;6916;51.504;7.416;2023-08-24T17:38:48;5.75;;;1.63;;
13687;SDS011;6916;51.504;7.416;2023-08-24T17:48:50;6.07;;;1.42;;
13687;SDS011;6916;51.504;7.416;2023-08-24T17:58:54;5.07;;;1.52;;
13687;SDS011;6916;51.504;7.416;2023-08-24T18:08:56;3.70;;;1.88;;
13687;SDS011;6916;51.504;7.416;2023-08-24T18:19:01;3.17;;;1.50;;
13687;SDS011;6916;51.504;7.416;2023-08-24T18:29:03;4.25;;;1.80;;
13687;SDS011;6916;51.504;7.416;2023-08-24T18:39:07;3.50;;;1.55;;
13687;SDS011;6916;51.504;7.416;2023-08-24T18:49:09;5.20;;;2.33;;
13687;SDS011;6916;51.504;7.416;2023-08-24T18:59:12;4.43;;;1.40;;
13687;SDS011;6916;51.504;7.416;2023-08-24T19:09:15;2.80;;;1.83;;
13687;SDS011;6916;51.504;7.416;2023-08-24T19:19:19;2.67;;;2.10;;
13687;SDS011;6916;51.504;7.416;2023-08-24T19:29:20;4.18;;;2.33;;
13687;SDS011;6916;51.504;7.416;2023-08-24T19:39:24;4.30;;;2.17;;
13687;SDS011;6916;51.504;7.416;2023-08-24T19:49:25;3.90;;;2.28;;
13687;SDS011;6916;51.504;7.416;2023-08-24T19:59:28;4.93;;;2.40;;
13687;SDS011;6916;51.504;7.416;2023-08-24T20:09:30;3.17;;;2.45;;
13687;SDS011;6916;51.504;7.416;2023-08-24T20:19:33;4.45;;;2.13;;
13687;SDS011;6916;51.504;7.416;2023-08-24T20:29:36;4.65;;;2.40;;
13687;SDS011;6916;51.504;7.416;2023-08-24T20:39:39;5.30;;;2.92;;
13687;SDS011;6916;51.504;7.416;2023-08-24T20:49:41;6.22;;;3.17;;
13687;SDS011;6916;51.504;7.416;2023-08-24T20:59:44;4.55;;;2.88;;
13687;SDS011;6916;51.504;7.416;2023-08-24T21:09:46;7.65;;;4.68;;
13687;SDS011;6916;51.504;7.416;2023-08-24T21:19:49;3.95;;;3.55;;
13687;SDS011;6916;51.504;7.416;2023-08-24T21:29:51;6.05;;;2.83;;
13687;SDS011;6916;51.504;7.416;2023-08-24T21:39:54;2.60;;;2.38;;
13687;SDS011;6916;51.504;7.416;2023-08-24T21:49:56;4.68;;;2.70;;
13687;SDS011;6916;51.504;7.416;2023-08-24T21:59:59;6.53;;;3.20;;
13687;SDS011;6916;51.504;7.416;2023-08-24T22:10:01;3.47;;;2.53;;
13687;SDS011;6916;51.504;7.416;2023-08-24T22:20:05;4.95;;;2.58;;
13687;SDS011;6916;51.504;7.416;2023-08-24T22:30:11;3.47;;;1.90;;
13687;SDS011;6916;51.504;7.416;2023-08-24T22:40:16;7.25;;;1.98;;
13687;SDS011;6916;51.504;7.416;2023-08-24T22:50:18;6.40;;;1.70;;
13687;SDS011;6916;51.504;7.416;2023-08-24T23:00:21;5.25;;;1.70;;
13687;SDS011;6916;51.504;7.416;2023-08-24T23:10:23;5.35;;;1.70;;
13687;SDS011;6916;51.504;7.416;2023-08-24T23:20:26;2.90;;;1.45;;
13687;SDS011;6916;51.504;7.416;2023-08-24T23:30:29;3.53;;;1.50;;
13687;SDS011;6916;51.504;7.416;2023-08-24T23:40:34;3.35;;;1.50;;
13687;SDS011;6916;51.504;7.416;2023-08-24T23:50:37;3.80;;;1.83;;
